sensor_id;sensor_type;location;lat;lon;timestamp;temperature;humidity
59975;DHT22;62136;-35.664;-63.766;2024-03-02T00:01:56;28.60;66.40
59975;DHT22;62136;-35.664;-63.766;2024-03-02T00:04:23;28.60;66.40
59975;DHT22;62136;-35.664;-63.766;2024-03-02T00:06:52;28.60;66.50
59975;DHT22;62136;-35.664;-63.766;2024-03-02T00:09:21;28.60;66.50
59975;DHT22;62136;-35.664;-63.766;2024-03-02T00:11:48;28.60;66.60
59975;DHT22;62136;-35.664;-63.766;2024-03-02T00:14:15;28.60;66.50
59975;DHT22;62136;-35.664;-63.766;2024-03-02T00:16:43;28.60;66.90
59975;DHT22;62136;-35.664;-63.766;2024-03-02T00:19:10;28.60;67.00
59975;DHT22;62136;-35.664;-63.766;2024-03-02T00:21:37;28.60;67.00
59975;DHT22;62136;-35.664;-63.766;2024-03-02T00:24:34;28.60;67.10
59975;DHT22;62136;-35.664;-63.766;2024-03-02T00:27:04;28.50;67.00
59975;DHT22;62136;-35.664;-63.766;2024-03-02T00:29:31;28.50;67.10
59975;DHT22;62136;-35.664;-63.766;2024-03-02T00:31:58;28.50;67.10
59975;DHT22;62136;-35.664;-63.766;2024-03-02T00:34:27;28.50;67.30
59975;DHT22;62136;-35.664;-63.766;2024-03-02T00:36:56;28.50;67.40
59975;DHT22;62136;-35.664;-63.766;2024-03-02T00:39:24;28.50;67.50
59975;DHT22;62136;-35.664;-63.766;2024-03-02T00:41:51;28.50;67.60
59975;DHT22;62136;-35.664;-63.766;2024-03-02T00:44:22;28.50;67.60
59975;DHT22;62136;-35.664;-63.766;2024-03-02T00:46:51;28.50;67.60
59975;DHT22;62136;-35.664;-63.766;2024-03-02T00:49:24;28.40;67.80
59975;DHT22;62136;-35.664;-63.766;2024-03-02T00:51:53;28.50;67.80
59975;DHT22;62136;-35.664;-63.766;2024-03-02T00:54:26;28.40;68.00
59975;DHT22;62136;-35.664;-63.766;2024-03-02T00:56:55;28.40;67.80
59975;DHT22;62136;-35.664;-63.766;2024-03-02T00:59:23;28.40;67.90
59975;DHT22;62136;-35.664;-63.766;2024-03-02T01:01:50;28.40;67.90
59975;DHT22;62136;-35.664;-63.766;2024-03-02T01:04:17;28.40;67.90
59975;DHT22;62136;-35.664;-63.766;2024-03-02T01:06:44;28.40;68.10
59975;DHT22;62136;-35.664;-63.766;2024-03-02T01:09:11;28.40;68.30
59975;DHT22;62136;-35.664;-63.766;2024-03-02T01:11:42;28.40;68.40
59975;DHT22;62136;-35.664;-63.766;2024-03-02T01:14:09;28.40;69.10
59975;DHT22;62136;-35.664;-63.766;2024-03-02T01:16:36;28.30;68.60
59975;DHT22;62136;-35.664;-63.766;2024-03-02T01:19:03;28.40;68.80
59975;DHT22;62136;-35.664;-63.766;2024-03-02T01:21:31;28.40;68.80
59975;DHT22;62136;-35.664;-63.766;2024-03-02T01:23:58;28.40;68.80
59975;DHT22;62136;-35.664;-63.766;2024-03-02T01:26:25;28.30;68.80
59975;DHT22;62136;-35.664;-63.766;2024-03-02T01:28:52;28.30;69.10
59975;DHT22;62136;-35.664;-63.766;2024-03-02T01:31:19;28.30;69.20
59975;DHT22;62136;-35.664;-63.766;2024-03-02T01:33:46;28.30;69.30
59975;DHT22;62136;-35.664;-63.766;2024-03-02T01:36:13;28.30;69.40
59975;DHT22;62136;-35.664;-63.766;2024-03-02T01:38:39;28.30;69.60
59975;DHT22;62136;-35.664;-63.766;2024-03-02T01:41:07;28.30;69.60
59975;DHT22;62136;-35.664;-63.766;2024-03-02T01:43:34;28.30;70.20
59975;DHT22;62136;-35.664;-63.766;2024-03-02T01:46:01;28.30;69.90
59975;DHT22;62136;-35.664;-63.766;2024-03-02T01:48:28;28.30;69.80
59975;DHT22;62136;-35.664;-63.766;2024-03-02T01:50:55;28.30;70.00
59975;DHT22;62136;-35.664;-63.766;2024-03-02T01:53:22;28.30;70.00
59975;DHT22;62136;-35.664;-63.766;2024-03-02T01:55:50;28.30;70.60
59975;DHT22;62136;-35.664;-63.766;2024-03-02T01:58:17;28.20;70.00
59975;DHT22;62136;-35.664;-63.766;2024-03-02T02:00:44;28.20;70.30
59975;DHT22;62136;-35.664;-63.766;2024-03-02T02:03:11;28.20;70.50
59975;DHT22;62136;-35.664;-63.766;2024-03-02T02:05:38;28.20;70.60
59975;DHT22;62136;-35.664;-63.766;2024-03-02T02:08:05;28.20;70.40
59975;DHT22;62136;-35.664;-63.766;2024-03-02T02:10:32;28.20;70.50
59975;DHT22;62136;-35.664;-63.766;2024-03-02T02:13:05;28.20;70.60
59975;DHT22;62136;-35.664;-63.766;2024-03-02T02:16:13;28.20;70.70
59975;DHT22;62136;-35.664;-63.766;2024-03-02T02:18:40;28.20;70.90
59975;DHT22;62136;-35.664;-63.766;2024-03-02T02:21:07;28.20;70.90
59975;DHT22;62136;-35.664;-63.766;2024-03-02T02:23:34;28.20;71.00
59975;DHT22;62136;-35.664;-63.766;2024-03-02T02:26:01;28.20;71.10
59975;DHT22;62136;-35.664;-63.766;2024-03-02T02:28:29;28.10;71.20
59975;DHT22;62136;-35.664;-63.766;2024-03-02T02:30:56;28.20;71.30
59975;DHT22;62136;-35.664;-63.766;2024-03-02T02:33:23;28.10;71.30
59975;DHT22;62136;-35.664;-63.766;2024-03-02T02:35:50;28.20;71.40
59975;DHT22;62136;-35.664;-63.766;2024-03-02T02:38:17;28.10;71.30
59975;DHT22;62136;-35.664;-63.766;2024-03-02T02:40:46;28.20;71.50
59975;DHT22;62136;-35.664;-63.766;2024-03-02T02:43:13;28.20;72.20
59975;DHT22;62136;-35.664;-63.766;2024-03-02T02:45:40;28.10;71.70
59975;DHT22;62136;-35.664;-63.766;2024-03-02T02:48:07;28.10;71.70
59975;DHT22;62136;-35.664;-63.766;2024-03-02T02:50:34;28.10;71.80
59975;DHT22;62136;-35.664;-63.766;2024-03-02T02:53:01;28.10;72.00
59975;DHT22;62136;-35.664;-63.766;2024-03-02T02:55:28;28.00;72.10
59975;DHT22;62136;-35.664;-63.766;2024-03-02T02:57:55;28.10;72.20
59975;DHT22;62136;-35.664;-63.766;2024-03-02T03:00:25;28.10;72.20
59975;DHT22;62136;-35.664;-63.766;2024-03-02T03:02:52;28.00;72.10
59975;DHT22;62136;-35.664;-63.766;2024-03-02T03:05:19;28.10;72.20
59975;DHT22;62136;-35.664;-63.766;2024-03-02T03:07:46;28.00;72.20
59975;DHT22;62136;-35.664;-63.766;2024-03-02T03:10:16;28.10;72.20
59975;DHT22;62136;-35.664;-63.766;2024-03-02T03:12:44;28.00;72.20
59975;DHT22;62136;-35.664;-63.766;2024-03-02T03:15:10;28.00;71.90
59975;DHT22;62136;-35.664;-63.766;2024-03-02T03:17:42;28.00;72.40
59975;DHT22;62136;-35.664;-63.766;2024-03-02T03:20:09;28.00;72.50
59975;DHT22;62136;-35.664;-63.766;2024-03-02T03:22:37;27.90;72.50
59975;DHT22;62136;-35.664;-63.766;2024-03-02T03:25:05;28.00;72.60
59975;DHT22;62136;-35.664;-63.766;2024-03-02T03:27:33;28.00;72.70
59975;DHT22;62136;-35.664;-63.766;2024-03-02T03:30:00;28.00;72.60
59975;DHT22;62136;-35.664;-63.766;2024-03-02T03:32:27;28.00;72.60
59975;DHT22;62136;-35.664;-63.766;2024-03-02T03:34:54;28.00;72.80
59975;DHT22;62136;-35.664;-63.766;2024-03-02T03:37:22;28.00;72.80
59975;DHT22;62136;-35.664;-63.766;2024-03-02T03:39:49;27.90;72.80
59975;DHT22;62136;-35.664;-63.766;2024-03-02T03:42:15;27.90;72.90
59975;DHT22;62136;-35.664;-63.766;2024-03-02T03:44:42;28.00;73.00
59975;DHT22;62136;-35.664;-63.766;2024-03-02T03:47:09;27.90;73.10
59975;DHT22;62136;-35.664;-63.766;2024-03-02T03:49:36;27.90;73.10
59975;DHT22;62136;-35.664;-63.766;2024-03-02T03:52:03;27.90;73.20
59975;DHT22;62136;-35.664;-63.766;2024-03-02T03:54:30;27.90;73.10
59975;DHT22;62136;-35.664;-63.766;2024-03-02T03:56:57;27.90;73.10
59975;DHT22;62136;-35.664;-63.766;2024-03-02T03:59:24;28.00;73.00
59975;DHT22;62136;-35.664;-63.766;2024-03-02T04:01:51;27.90;72.80
59975;DHT22;62136;-35.664;-63.766;2024-03-02T04:04:19;28.00;72.90
59975;DHT22;62136;-35.664;-63.766;2024-03-02T04:06:46;28.00;72.60
59975;DHT22;62136;-35.664;-63.766;2024-03-02T04:09:13;28.00;72.90
59975;DHT22;62136;-35.664;-63.766;2024-03-02T04:11:40;28.00;72.50
59975;DHT22;62136;-35.664;-63.766;2024-03-02T04:14:07;27.90;72.50
59975;DHT22;62136;-35.664;-63.766;2024-03-02T04:16:34;28.00;72.60
59975;DHT22;62136;-35.664;-63.766;2024-03-02T04:19:01;28.00;72.30
59975;DHT22;62136;-35.664;-63.766;2024-03-02T04:21:28;28.00;72.90
59975;DHT22;62136;-35.664;-63.766;2024-03-02T04:23:55;28.00;72.60
59975;DHT22;62136;-35.664;-63.766;2024-03-02T04:26:26;28.00;72.90
59975;DHT22;62136;-35.664;-63.766;2024-03-02T04:28:53;27.90;72.80
59975;DHT22;62136;-35.664;-63.766;2024-03-02T04:31:21;27.90;72.70
59975;DHT22;62136;-35.664;-63.766;2024-03-02T04:33:48;27.90;72.90
59975;DHT22;62136;-35.664;-63.766;2024-03-02T04:36:15;27.90;72.90
59975;DHT22;62136;-35.664;-63.766;2024-03-02T04:38:41;27.90;72.80
59975;DHT22;62136;-35.664;-63.766;2024-03-02T04:41:08;27.90;72.50
59975;DHT22;62136;-35.664;-63.766;2024-03-02T04:43:36;27.90;73.10
59975;DHT22;62136;-35.664;-63.766;2024-03-02T04:46:03;27.90;73.10
59975;DHT22;62136;-35.664;-63.766;2024-03-02T04:48:30;27.90;73.10
59975;DHT22;62136;-35.664;-63.766;2024-03-02T04:50:57;27.90;73.10
59975;DHT22;62136;-35.664;-63.766;2024-03-02T04:53:24;27.90;73.10
59975;DHT22;62136;-35.664;-63.766;2024-03-02T04:55:51;27.90;73.00
59975;DHT22;62136;-35.664;-63.766;2024-03-02T04:58:24;27.90;73.20
59975;DHT22;62136;-35.664;-63.766;2024-03-02T05:00:51;27.90;73.40
59975;DHT22;62136;-35.664;-63.766;2024-03-02T05:03:18;27.90;73.40
59975;DHT22;62136;-35.664;-63.766;2024-03-02T05:05:45;27.90;73.50
59975;DHT22;62136;-35.664;-63.766;2024-03-02T05:08:13;27.90;73.40
59975;DHT22;62136;-35.664;-63.766;2024-03-02T05:10:39;27.80;73.60
59975;DHT22;62136;-35.664;-63.766;2024-03-02T05:13:06;27.80;73.50
59975;DHT22;62136;-35.664;-63.766;2024-03-02T05:15:33;27.80;73.70
59975;DHT22;62136;-35.664;-63.766;2024-03-02T05:18:00;27.80;73.40
59975;DHT22;62136;-35.664;-63.766;2024-03-02T05:20:31;27.80;73.80
59975;DHT22;62136;-35.664;-63.766;2024-03-02T05:22:58;27.80;73.60
59975;DHT22;62136;-35.664;-63.766;2024-03-02T05:25:25;27.80;73.70
59975;DHT22;62136;-35.664;-63.766;2024-03-02T05:27:52;27.80;73.80
59975;DHT22;62136;-35.664;-63.766;2024-03-02T05:30:19;27.80;74.00
59975;DHT22;62136;-35.664;-63.766;2024-03-02T05:32:46;27.80;74.00
59975;DHT22;62136;-35.664;-63.766;2024-03-02T05:35:13;27.80;74.10
59975;DHT22;62136;-35.664;-63.766;2024-03-02T05:37:41;27.80;73.90
59975;DHT22;62136;-35.664;-63.766;2024-03-02T05:40:08;27.80;74.20
59975;DHT22;62136;-35.664;-63.766;2024-03-02T05:42:37;27.80;74.30
59975;DHT22;62136;-35.664;-63.766;2024-03-02T05:45:04;27.80;74.20
59975;DHT22;62136;-35.664;-63.766;2024-03-02T05:47:32;27.70;74.20
59975;DHT22;62136;-35.664;-63.766;2024-03-02T05:49:59;27.70;74.30
59975;DHT22;62136;-35.664;-63.766;2024-03-02T05:52:26;27.80;74.40
59975;DHT22;62136;-35.664;-63.766;2024-03-02T05:54:53;27.80;74.10
59975;DHT22;62136;-35.664;-63.766;2024-03-02T05:57:20;27.70;74.20
59975;DHT22;62136;-35.664;-63.766;2024-03-02T06:00:05;27.70;74.20
59975;DHT22;62136;-35.664;-63.766;2024-03-02T06:02:34;27.70;74.10
59975;DHT22;62136;-35.664;-63.766;2024-03-02T06:05:05;27.70;74.50
59975;DHT22;62136;-35.664;-63.766;2024-03-02T06:07:33;27.70;74.90
59975;DHT22;62136;-35.664;-63.766;2024-03-02T06:10:01;27.70;74.40
59975;DHT22;62136;-35.664;-63.766;2024-03-02T06:12:28;27.70;74.90
59975;DHT22;62136;-35.664;-63.766;2024-03-02T06:14:57;27.70;74.50
59975;DHT22;62136;-35.664;-63.766;2024-03-02T06:17:24;27.70;74.60
59975;DHT22;62136;-35.664;-63.766;2024-03-02T06:19:51;27.70;74.70
59975;DHT22;62136;-35.664;-63.766;2024-03-02T06:22:18;27.70;74.50
59975;DHT22;62136;-35.664;-63.766;2024-03-02T06:24:45;27.60;74.50
59975;DHT22;62136;-35.664;-63.766;2024-03-02T06:27:12;27.70;74.60
59975;DHT22;62136;-35.664;-63.766;2024-03-02T06:29:39;27.60;74.60
59975;DHT22;62136;-35.664;-63.766;2024-03-02T06:32:06;27.60;74.80
59975;DHT22;62136;-35.664;-63.766;2024-03-02T06:34:33;27.60;74.90
59975;DHT22;62136;-35.664;-63.766;2024-03-02T06:37:00;27.60;74.90
59975;DHT22;62136;-35.664;-63.766;2024-03-02T06:39:27;27.60;74.80
59975;DHT22;62136;-35.664;-63.766;2024-03-02T06:41:54;27.60;75.20
59975;DHT22;62136;-35.664;-63.766;2024-03-02T06:44:21;27.60;75.30
59975;DHT22;62136;-35.664;-63.766;2024-03-02T06:46:48;27.60;75.50
59975;DHT22;62136;-35.664;-63.766;2024-03-02T06:49:15;27.60;74.80
59975;DHT22;62136;-35.664;-63.766;2024-03-02T06:51:44;27.60;75.10
59975;DHT22;62136;-35.664;-63.766;2024-03-02T06:54:12;27.60;75.00
59975;DHT22;62136;-35.664;-63.766;2024-03-02T06:56:38;27.60;75.20
59975;DHT22;62136;-35.664;-63.766;2024-03-02T06:59:05;27.60;75.20
59975;DHT22;62136;-35.664;-63.766;2024-03-02T07:01:33;27.60;75.50
59975;DHT22;62136;-35.664;-63.766;2024-03-02T07:04:00;27.60;75.60
59975;DHT22;62136;-35.664;-63.766;2024-03-02T07:06:27;27.60;75.70
59975;DHT22;62136;-35.664;-63.766;2024-03-02T07:08:54;27.60;75.70
59975;DHT22;62136;-35.664;-63.766;2024-03-02T07:11:21;27.60;75.70
59975;DHT22;62136;-35.664;-63.766;2024-03-02T07:13:48;27.60;75.60
59975;DHT22;62136;-35.664;-63.766;2024-03-02T07:16:15;27.50;75.50
59975;DHT22;62136;-35.664;-63.766;2024-03-02T07:19:08;27.50;75.70
59975;DHT22;62136;-35.664;-63.766;2024-03-02T07:21:35;27.50;75.40
59975;DHT22;62136;-35.664;-63.766;2024-03-02T07:24:02;27.50;76.10
59975;DHT22;62136;-35.664;-63.766;2024-03-02T07:26:31;27.50;75.80
59975;DHT22;62136;-35.664;-63.766;2024-03-02T07:28:58;27.50;76.00
59975;DHT22;62136;-35.664;-63.766;2024-03-02T07:31:25;27.50;75.90
59975;DHT22;62136;-35.664;-63.766;2024-03-02T07:33:52;27.50;76.00
59975;DHT22;62136;-35.664;-63.766;2024-03-02T07:36:19;27.50;76.10
59975;DHT22;62136;-35.664;-63.766;2024-03-02T07:38:45;27.50;76.00
59975;DHT22;62136;-35.664;-63.766;2024-03-02T07:41:16;27.40;75.90
59975;DHT22;62136;-35.664;-63.766;2024-03-02T07:43:44;27.50;76.00
59975;DHT22;62136;-35.664;-63.766;2024-03-02T07:46:11;27.50;76.20
59975;DHT22;62136;-35.664;-63.766;2024-03-02T07:48:38;27.40;76.00
59975;DHT22;62136;-35.664;-63.766;2024-03-02T07:51:05;27.40;76.00
59975;DHT22;62136;-35.664;-63.766;2024-03-02T07:53:32;27.40;75.90
59975;DHT22;62136;-35.664;-63.766;2024-03-02T07:55:59;27.40;75.50
59975;DHT22;62136;-35.664;-63.766;2024-03-02T07:58:29;27.40;75.90
59975;DHT22;62136;-35.664;-63.766;2024-03-02T08:00:57;27.40;76.20
59975;DHT22;62136;-35.664;-63.766;2024-03-02T08:03:24;27.40;76.20
59975;DHT22;62136;-35.664;-63.766;2024-03-02T08:05:51;27.40;76.20
59975;DHT22;62136;-35.664;-63.766;2024-03-02T08:08:18;27.40;76.20
59975;DHT22;62136;-35.664;-63.766;2024-03-02T08:10:45;27.40;76.30
59975;DHT22;62136;-35.664;-63.766;2024-03-02T08:13:12;27.30;76.20
59975;DHT22;62136;-35.664;-63.766;2024-03-02T08:15:40;27.30;76.50
59975;DHT22;62136;-35.664;-63.766;2024-03-02T08:18:07;27.30;76.20
59975;DHT22;62136;-35.664;-63.766;2024-03-02T08:20:34;27.30;76.60
59975;DHT22;62136;-35.664;-63.766;2024-03-02T08:23:01;27.30;76.70
59975;DHT22;62136;-35.664;-63.766;2024-03-02T08:25:28;27.30;76.70
59975;DHT22;62136;-35.664;-63.766;2024-03-02T08:27:56;27.30;76.70
59975;DHT22;62136;-35.664;-63.766;2024-03-02T08:30:23;27.30;76.60
59975;DHT22;62136;-35.664;-63.766;2024-03-02T08:32:50;27.30;76.20
59975;DHT22;62136;-35.664;-63.766;2024-03-02T08:35:17;27.30;76.20
59975;DHT22;62136;-35.664;-63.766;2024-03-02T08:37:44;27.20;76.30
59975;DHT22;62136;-35.664;-63.766;2024-03-02T08:40:11;27.20;76.60
59975;DHT22;62136;-35.664;-63.766;2024-03-02T08:42:38;27.20;76.90
59975;DHT22;62136;-35.664;-63.766;2024-03-02T08:45:07;27.20;76.90
59975;DHT22;62136;-35.664;-63.766;2024-03-02T08:47:34;27.20;76.90
59975;DHT22;62136;-35.664;-63.766;2024-03-02T08:50:01;27.20;77.00
59975;DHT22;62136;-35.664;-63.766;2024-03-02T08:52:28;27.20;76.70
59975;DHT22;62136;-35.664;-63.766;2024-03-02T08:54:55;27.10;76.30
59975;DHT22;62136;-35.664;-63.766;2024-03-02T08:57:22;27.20;77.20
59975;DHT22;62136;-35.664;-63.766;2024-03-02T08:59:49;27.10;77.10
59975;DHT22;62136;-35.664;-63.766;2024-03-02T09:02:16;27.10;76.60
59975;DHT22;62136;-35.664;-63.766;2024-03-02T09:04:43;27.10;77.20
59975;DHT22;62136;-35.664;-63.766;2024-03-02T09:07:10;27.10;77.30
59975;DHT22;62136;-35.664;-63.766;2024-03-02T09:09:37;27.10;77.20
59975;DHT22;62136;-35.664;-63.766;2024-03-02T09:12:06;27.10;77.30
59975;DHT22;62136;-35.664;-63.766;2024-03-02T09:14:34;27.00;77.50
59975;DHT22;62136;-35.664;-63.766;2024-03-02T09:17:01;27.00;77.60
59975;DHT22;62136;-35.664;-63.766;2024-03-02T09:19:28;27.00;77.50
59975;DHT22;62136;-35.664;-63.766;2024-03-02T09:21:56;27.00;77.80
59975;DHT22;62136;-35.664;-63.766;2024-03-02T09:24:24;27.00;77.60
59975;DHT22;62136;-35.664;-63.766;2024-03-02T09:26:51;27.00;77.10
59975;DHT22;62136;-35.664;-63.766;2024-03-02T09:29:18;27.00;77.60
59975;DHT22;62136;-35.664;-63.766;2024-03-02T09:31:47;27.00;77.80
59975;DHT22;62136;-35.664;-63.766;2024-03-02T09:34:14;26.90;77.80
59975;DHT22;62136;-35.664;-63.766;2024-03-02T09:36:42;26.90;77.80
59975;DHT22;62136;-35.664;-63.766;2024-03-02T09:39:09;26.90;77.70
59975;DHT22;62136;-35.664;-63.766;2024-03-02T09:41:39;27.00;77.80
59975;DHT22;62136;-35.664;-63.766;2024-03-02T09:44:06;26.90;77.80
59975;DHT22;62136;-35.664;-63.766;2024-03-02T09:46:33;26.90;77.80
59975;DHT22;62136;-35.664;-63.766;2024-03-02T09:49:02;26.90;77.70
59975;DHT22;62136;-35.664;-63.766;2024-03-02T09:51:29;26.90;77.20
59975;DHT22;62136;-35.664;-63.766;2024-03-02T09:53:56;26.90;77.60
59975;DHT22;62136;-35.664;-63.766;2024-03-02T09:56:23;26.90;77.30
59975;DHT22;62136;-35.664;-63.766;2024-03-02T09:58:50;26.90;77.80
59975;DHT22;62136;-35.664;-63.766;2024-03-02T10:01:18;26.90;77.20
59975;DHT22;62136;-35.664;-63.766;2024-03-02T10:03:45;26.90;77.70
59975;DHT22;62136;-35.664;-63.766;2024-03-02T10:06:23;26.90;78.10
59975;DHT22;62136;-35.664;-63.766;2024-03-02T10:08:51;26.80;77.90
59975;DHT22;62136;-35.664;-63.766;2024-03-02T10:11:31;26.80;77.30
59975;DHT22;62136;-35.664;-63.766;2024-03-02T10:14:09;26.80;77.70
59975;DHT22;62136;-35.664;-63.766;2024-03-02T10:16:38;26.80;77.70
59975;DHT22;62136;-35.664;-63.766;2024-03-02T10:21:53;26.80;78.10
59975;DHT22;62136;-35.664;-63.766;2024-03-02T10:24:22;26.80;77.60
59975;DHT22;62136;-35.664;-63.766;2024-03-02T10:26:50;26.80;77.90
59975;DHT22;62136;-35.664;-63.766;2024-03-02T10:29:17;26.70;77.90
59975;DHT22;62136;-35.664;-63.766;2024-03-02T10:31:45;26.80;78.10
59975;DHT22;62136;-35.664;-63.766;2024-03-02T10:34:13;26.70;78.10
59975;DHT22;62136;-35.664;-63.766;2024-03-02T10:36:44;26.70;78.30
59975;DHT22;62136;-35.664;-63.766;2024-03-02T10:39:14;26.70;78.20
59975;DHT22;62136;-35.664;-63.766;2024-03-02T10:41:41;26.70;78.40
59975;DHT22;62136;-35.664;-63.766;2024-03-02T10:44:09;26.70;78.20
59975;DHT22;62136;-35.664;-63.766;2024-03-02T10:46:37;26.70;78.10
59975;DHT22;62136;-35.664;-63.766;2024-03-02T10:49:06;26.70;78.30
59975;DHT22;62136;-35.664;-63.766;2024-03-02T10:51:34;26.60;78.40
59975;DHT22;62136;-35.664;-63.766;2024-03-02T10:54:03;26.70;78.40
59975;DHT22;62136;-35.664;-63.766;2024-03-02T11:01:51;26.60;78.30
59975;DHT22;62136;-35.664;-63.766;2024-03-02T11:04:21;26.60;78.50
59975;DHT22;62136;-35.664;-63.766;2024-03-02T11:06:50;26.60;78.10
59975;DHT22;62136;-35.664;-63.766;2024-03-02T11:09:22;26.60;78.60
59975;DHT22;62136;-35.664;-63.766;2024-03-02T11:12:03;26.60;78.60
59975;DHT22;62136;-35.664;-63.766;2024-03-02T11:14:33;26.60;78.70
59975;DHT22;62136;-35.664;-63.766;2024-03-02T11:17:02;26.50;78.70
59975;DHT22;62136;-35.664;-63.766;2024-03-02T11:19:30;26.50;78.60
59975;DHT22;62136;-35.664;-63.766;2024-03-02T11:21:58;26.50;78.50
59975;DHT22;62136;-35.664;-63.766;2024-03-02T11:27:03;26.50;78.80
59975;DHT22;62136;-35.664;-63.766;2024-03-02T11:29:42;26.50;79.00
59975;DHT22;62136;-35.664;-63.766;2024-03-02T11:32:17;26.50;78.80
59975;DHT22;62136;-35.664;-63.766;2024-03-02T11:34:50;26.50;79.00
59975;DHT22;62136;-35.664;-63.766;2024-03-02T11:37:18;26.50;79.00
59975;DHT22;62136;-35.664;-63.766;2024-03-02T11:39:49;26.50;79.00
59975;DHT22;62136;-35.664;-63.766;2024-03-02T11:42:17;26.50;79.00
59975;DHT22;62136;-35.664;-63.766;2024-03-02T11:44:48;26.50;79.00
59975;DHT22;62136;-35.664;-63.766;2024-03-02T11:47:16;26.50;79.00
59975;DHT22;62136;-35.664;-63.766;2024-03-02T11:49:50;26.50;78.80
59975;DHT22;62136;-35.664;-63.766;2024-03-02T11:52:21;26.60;79.00
59975;DHT22;62136;-35.664;-63.766;2024-03-02T11:54:49;26.60;78.90
59975;DHT22;62136;-35.664;-63.766;2024-03-02T11:57:21;26.60;78.80
59975;DHT22;62136;-35.664;-63.766;2024-03-02T11:59:49;26.60;78.90
59975;DHT22;62136;-35.664;-63.766;2024-03-02T12:02:18;26.70;79.00
59975;DHT22;62136;-35.664;-63.766;2024-03-02T12:04:46;26.70;78.90
59975;DHT22;62136;-35.664;-63.766;2024-03-02T12:07:23;26.60;78.90
59975;DHT22;62136;-35.664;-63.766;2024-03-02T12:10:01;26.70;78.90
59975;DHT22;62136;-35.664;-63.766;2024-03-02T12:12:29;26.70;78.50
59975;DHT22;62136;-35.664;-63.766;2024-03-02T12:14:56;26.70;78.50
59975;DHT22;62136;-35.664;-63.766;2024-03-02T12:17:23;26.80;78.20
59975;DHT22;62136;-35.664;-63.766;2024-03-02T12:19:50;26.80;78.20
59975;DHT22;62136;-35.664;-63.766;2024-03-02T12:22:17;26.80;77.50
59975;DHT22;62136;-35.664;-63.766;2024-03-02T12:24:44;26.80;77.60
59975;DHT22;62136;-35.664;-63.766;2024-03-02T12:27:13;26.90;77.30
59975;DHT22;62136;-35.664;-63.766;2024-03-02T12:29:41;26.90;77.40
59975;DHT22;62136;-35.664;-63.766;2024-03-02T12:32:08;26.90;76.80
59975;DHT22;62136;-35.664;-63.766;2024-03-02T12:34:35;26.90;76.90
59975;DHT22;62136;-35.664;-63.766;2024-03-02T12:37:04;26.90;76.60
59975;DHT22;62136;-35.664;-63.766;2024-03-02T12:39:31;26.90;76.60
59975;DHT22;62136;-35.664;-63.766;2024-03-02T12:41:59;26.90;76.30
59975;DHT22;62136;-35.664;-63.766;2024-03-02T12:44:26;27.00;76.10
59975;DHT22;62136;-35.664;-63.766;2024-03-02T12:46:53;27.00;76.20
59975;DHT22;62136;-35.664;-63.766;2024-03-02T12:49:22;27.00;76.00
59975;DHT22;62136;-35.664;-63.766;2024-03-02T12:51:50;27.00;75.70
59975;DHT22;62136;-35.664;-63.766;2024-03-02T12:54:22;27.00;75.50
59975;DHT22;62136;-35.664;-63.766;2024-03-02T12:56:51;27.00;75.30
59975;DHT22;62136;-35.664;-63.766;2024-03-02T12:59:23;27.00;75.00
59975;DHT22;62136;-35.664;-63.766;2024-03-02T13:01:53;27.10;74.90
59975;DHT22;62136;-35.664;-63.766;2024-03-02T13:04:25;27.10;74.60
59975;DHT22;62136;-35.664;-63.766;2024-03-02T13:06:52;27.10;74.50
59975;DHT22;62136;-35.664;-63.766;2024-03-02T13:09:20;27.10;74.50
59975;DHT22;62136;-35.664;-63.766;2024-03-02T13:11:48;27.10;74.20
59975;DHT22;62136;-35.664;-63.766;2024-03-02T13:14:15;27.10;74.20
59975;DHT22;62136;-35.664;-63.766;2024-03-02T13:16:44;27.20;74.20
59975;DHT22;62136;-35.664;-63.766;2024-03-02T13:19:14;27.20;74.20
59975;DHT22;62136;-35.664;-63.766;2024-03-02T13:21:41;27.20;73.90
59975;DHT22;62136;-35.664;-63.766;2024-03-02T13:24:08;27.20;73.60
59975;DHT22;62136;-35.664;-63.766;2024-03-02T13:26:36;27.30;73.40
59975;DHT22;62136;-35.664;-63.766;2024-03-02T13:29:03;27.30;73.40
59975;DHT22;62136;-35.664;-63.766;2024-03-02T13:31:29;27.30;73.30
59975;DHT22;62136;-35.664;-63.766;2024-03-02T13:33:56;27.30;73.10
59975;DHT22;62136;-35.664;-63.766;2024-03-02T13:36:23;27.30;73.10
59975;DHT22;62136;-35.664;-63.766;2024-03-02T13:38:51;27.40;73.00
59975;DHT22;62136;-35.664;-63.766;2024-03-02T13:41:18;27.40;73.00
59975;DHT22;62136;-35.664;-63.766;2024-03-02T13:43:46;27.40;72.90
59975;DHT22;62136;-35.664;-63.766;2024-03-02T13:46:14;27.40;72.90
59975;DHT22;62136;-35.664;-63.766;2024-03-02T13:48:41;27.40;72.60
59975;DHT22;62136;-35.664;-63.766;2024-03-02T13:51:08;27.40;72.50
59975;DHT22;62136;-35.664;-63.766;2024-03-02T13:53:35;27.40;72.30
59975;DHT22;62136;-35.664;-63.766;2024-03-02T13:56:03;27.50;72.20
59975;DHT22;62136;-35.664;-63.766;2024-03-02T13:58:30;27.50;71.80
59975;DHT22;62136;-35.664;-63.766;2024-03-02T14:00:57;27.50;71.50
59975;DHT22;62136;-35.664;-63.766;2024-03-02T14:03:24;27.50;71.30
59975;DHT22;62136;-35.664;-63.766;2024-03-02T14:05:54;27.60;71.30
59975;DHT22;62136;-35.664;-63.766;2024-03-02T14:08:22;27.60;71.10
59975;DHT22;62136;-35.664;-63.766;2024-03-02T14:10:49;27.60;71.00
59975;DHT22;62136;-35.664;-63.766;2024-03-02T14:13:16;27.70;70.80
59975;DHT22;62136;-35.664;-63.766;2024-03-02T14:15:43;27.60;70.30
59975;DHT22;62136;-35.664;-63.766;2024-03-02T14:18:12;27.70;70.70
59975;DHT22;62136;-35.664;-63.766;2024-03-02T14:20:39;27.70;70.30
59975;DHT22;62136;-35.664;-63.766;2024-03-02T14:23:06;27.70;70.00
59975;DHT22;62136;-35.664;-63.766;2024-03-02T14:25:33;27.70;70.00
59975;DHT22;62136;-35.664;-63.766;2024-03-02T14:28:00;27.70;69.90
59975;DHT22;62136;-35.664;-63.766;2024-03-02T14:30:27;27.80;69.20
59975;DHT22;62136;-35.664;-63.766;2024-03-02T14:32:54;27.80;69.00
59975;DHT22;62136;-35.664;-63.766;2024-03-02T14:35:21;27.80;69.10
59975;DHT22;62136;-35.664;-63.766;2024-03-02T14:37:49;27.80;69.00
59975;DHT22;62136;-35.664;-63.766;2024-03-02T14:40:16;27.80;68.90
59975;DHT22;62136;-35.664;-63.766;2024-03-02T14:42:43;27.90;68.50
59975;DHT22;62136;-35.664;-63.766;2024-03-02T14:45:14;27.90;68.50
59975;DHT22;62136;-35.664;-63.766;2024-03-02T14:47:41;27.90;68.80
59975;DHT22;62136;-35.664;-63.766;2024-03-02T14:50:08;27.90;67.60
59975;DHT22;62136;-35.664;-63.766;2024-03-02T14:52:36;27.90;67.70
59975;DHT22;62136;-35.664;-63.766;2024-03-02T14:55:03;27.90;67.90
59975;DHT22;62136;-35.664;-63.766;2024-03-02T14:57:30;28.00;67.40
59975;DHT22;62136;-35.664;-63.766;2024-03-02T14:59:57;28.00;67.40
59975;DHT22;62136;-35.664;-63.766;2024-03-02T15:02:24;28.00;67.20
59975;DHT22;62136;-35.664;-63.766;2024-03-02T15:04:53;28.00;66.80